sensor_id;sensor_type;location;lat;lon;timestamp;P1;durP1;ratioP1;P2;durP2;ratioP2
21769;SDS011;11046;49.558;8.674;2023-07-24T00:01:49;5.15;;;3.10;;
21769;SDS011;11046;49.558;8.674;2023-07-24T00:04:50;5.88;;;3.08;;
21769;SDS011;11046;49.558;8.674;2023-07-24T00:07:50;4.95;;;3.35;;
21769;SDS011;11046;49.558;8.674;2023-07-24T00:10:51;5.88;;;3.55;;
21769;SDS011;11046;49.558;8.674;2023-07-24T00:13:51;5.45;;;3.40;;
21769;SDS011;11046;49.558;8.674;2023-07-24T00:16:52;5.25;;;3.42;;
21769;SDS011;11046;49.558;8.674;2023-07-24T00:19:52;6.30;;;3.25;;
21769;SDS011;11046;49.558;8.674;2023-07-24T00:22:53;5.80;;;3.63;;
21769;SDS011;11046;49.558;8.674;2023-07-24T00:25:54;5.45;;;3.58;;
21769;SDS011;11046;49.558;8.674;2023-07-24T00:28:54;5.07;;;3.58;;
21769;SDS011;11046;49.558;8.674;2023-07-24T00:31:55;5.38;;;3.60;;
21769;SDS011;11046;49.558;8.674;2023-07-24T00:34:56;6.70;;;3.55;;
21769;SDS011;11046;49.558;8.674;2023-07-24T00:37:58;7.20;;;3.95;;
21769;SDS011;11046;49.558;8.674;2023-07-24T00:41:00;7.78;;;4.32;;
21769;SDS011;11046;49.558;8.674;2023-07-24T00:44:02;8.77;;;4.35;;
21769;SDS011;11046;49.558;8.674;2023-07-24T00:47:04;8.55;;;4.45;;
21769;SDS011;11046;49.558;8.674;2023-07-24T00:50:05;6.35;;;4.13;;
21769;SDS011;11046;49.558;8.674;2023-07-24T00:53:06;8.05;;;4.55;;
21769;SDS011;11046;49.558;8.674;2023-07-24T00:56:07;8.73;;;5.10;;
21769;SDS011;11046;49.558;8.674;2023-07-24T00:59:08;7.43;;;4.80;;
21769;SDS011;11046;49.558;8.674;2023-07-24T01:02:09;9.02;;;4.85;;
21769;SDS011;11046;49.558;8.674;2023-07-24T01:05:15;9.43;;;4.68;;
21769;SDS011;11046;49.558;8.674;2023-07-24T01:08:17;8.70;;;5.03;;
21769;SDS011;11046;49.558;8.674;2023-07-24T01:11:19;7.70;;;4.47;;
21769;SDS011;11046;49.558;8.674;2023-07-24T01:14:29;7.55;;;4.25;;
21769;SDS011;11046;49.558;8.674;2023-07-24T01:17:39;11.90;;;4.38;;
21769;SDS011;11046;49.558;8.674;2023-07-24T01:20:49;9.45;;;4.07;;
21769;SDS011;11046;49.558;8.674;2023-07-24T01:24:03;7.05;;;4.32;;
21769;SDS011;11046;49.558;8.674;2023-07-24T01:27:06;7.63;;;4.45;;
21769;SDS011;11046;49.558;8.674;2023-07-24T01:30:07;6.75;;;4.03;;
21769;SDS011;11046;49.558;8.674;2023-07-24T01:33:08;7.95;;;3.90;;
21769;SDS011;11046;49.558;8.674;2023-07-24T01:36:09;9.15;;;4.70;;
21769;SDS011;11046;49.558;8.674;2023-07-24T01:39:10;8.70;;;4.30;;
21769;SDS011;11046;49.558;8.674;2023-07-24T01:42:11;7.45;;;4.10;;
21769;SDS011;11046;49.558;8.674;2023-07-24T01:45:12;8.90;;;3.55;;
21769;SDS011;11046;49.558;8.674;2023-07-24T01:48:13;8.27;;;4.30;;
21769;SDS011;11046;49.558;8.674;2023-07-24T01:51:14;7.68;;;3.67;;
21769;SDS011;11046;49.558;8.674;2023-07-24T01:54:14;7.13;;;4.40;;
21769;SDS011;11046;49.558;8.674;2023-07-24T01:57:15;6.32;;;3.65;;
21769;SDS011;11046;49.558;8.674;2023-07-24T02:00:16;7.00;;;4.13;;
21769;SDS011;11046;49.558;8.674;2023-07-24T02:03:16;6.75;;;4.10;;
21769;SDS011;11046;49.558;8.674;2023-07-24T02:06:18;6.38;;;3.95;;
21769;SDS011;11046;49.558;8.674;2023-07-24T02:09:19;7.55;;;4.25;;
21769;SDS011;11046;49.558;8.674;2023-07-24T02:12:20;9.25;;;3.90;;
21769;SDS011;11046;49.558;8.674;2023-07-24T02:15:21;7.40;;;4.07;;
21769;SDS011;11046;49.558;8.674;2023-07-24T02:18:21;6.05;;;3.83;;
21769;SDS011;11046;49.558;8.674;2023-07-24T02:21:22;7.00;;;4.00;;
21769;SDS011;11046;49.558;8.674;2023-07-24T02:24:23;7.57;;;4.05;;
21769;SDS011;11046;49.558;8.674;2023-07-24T02:27:25;6.45;;;3.78;;
21769;SDS011;11046;49.558;8.674;2023-07-24T02:30:27;5.55;;;3.80;;
21769;SDS011;11046;49.558;8.674;2023-07-24T02:33:29;5.07;;;3.60;;
21769;SDS011;11046;49.558;8.674;2023-07-24T02:36:30;5.78;;;3.70;;
21769;SDS011;11046;49.558;8.674;2023-07-24T02:39:31;7.38;;;4.15;;
21769;SDS011;11046;49.558;8.674;2023-07-24T02:42:31;6.40;;;3.88;;
21769;SDS011;11046;49.558;8.674;2023-07-24T02:45:36;5.90;;;3.78;;
21769;SDS011;11046;49.558;8.674;2023-07-24T02:48:37;7.57;;;4.45;;
21769;SDS011;11046;49.558;8.674;2023-07-24T02:51:37;7.43;;;4.43;;
21769;SDS011;11046;49.558;8.674;2023-07-24T02:54:38;6.40;;;3.88;;
21769;SDS011;11046;49.558;8.674;2023-07-24T02:57:39;7.15;;;3.95;;
21769;SDS011;11046;49.558;8.674;2023-07-24T03:00:39;7.13;;;4.00;;
21769;SDS011;11046;49.558;8.674;2023-07-24T03:03:41;9.55;;;4.40;;
21769;SDS011;11046;49.558;8.674;2023-07-24T03:06:41;6.93;;;4.47;;
21769;SDS011;11046;49.558;8.674;2023-07-24T03:09:42;6.47;;;3.92;;
21769;SDS011;11046;49.558;8.674;2023-07-24T03:12:42;5.93;;;3.90;;
21769;SDS011;11046;49.558;8.674;2023-07-24T03:15:43;9.13;;;4.40;;
21769;SDS011;11046;49.558;8.674;2023-07-24T03:18:51;6.93;;;3.90;;
21769;SDS011;11046;49.558;8.674;2023-07-24T03:21:51;6.88;;;4.05;;
21769;SDS011;11046;49.558;8.674;2023-07-24T03:24:52;7.80;;;4.32;;
21769;SDS011;11046;49.558;8.674;2023-07-24T03:27:52;7.88;;;3.95;;
21769;SDS011;11046;49.558;8.674;2023-07-24T03:35:20;8.60;;;3.78;;
21769;SDS011;11046;49.558;8.674;2023-07-24T03:38:20;7.82;;;4.07;;
21769;SDS011;11046;49.558;8.674;2023-07-24T03:41:21;6.10;;;3.67;;
21769;SDS011;11046;49.558;8.674;2023-07-24T03:44:22;6.40;;;3.92;;
21769;SDS011;11046;49.558;8.674;2023-07-24T03:47:22;6.57;;;4.07;;
21769;SDS011;11046;49.558;8.674;2023-07-24T03:50:23;8.38;;;4.10;;
21769;SDS011;11046;49.558;8.674;2023-07-24T03:53:24;5.35;;;3.83;;
21769;SDS011;11046;49.558;8.674;2023-07-24T03:56:25;6.72;;;4.28;;
21769;SDS011;11046;49.558;8.674;2023-07-24T03:59:25;6.63;;;4.13;;
21769;SDS011;11046;49.558;8.674;2023-07-24T04:02:26;9.40;;;3.78;;
21769;SDS011;11046;49.558;8.674;2023-07-24T04:05:27;7.20;;;4.07;;
21769;SDS011;11046;49.558;8.674;2023-07-24T04:08:27;7.47;;;4.38;;
21769;SDS011;11046;49.558;8.674;2023-07-24T04:11:28;6.50;;;3.92;;
21769;SDS011;11046;49.558;8.674;2023-07-24T04:14:28;6.43;;;4.28;;
21769;SDS011;11046;49.558;8.674;2023-07-24T04:17:29;11.10;;;4.15;;
21769;SDS011;11046;49.558;8.674;2023-07-24T04:20:29;6.05;;;3.92;;
21769;SDS011;11046;49.558;8.674;2023-07-24T04:23:30;6.47;;;3.72;;
21769;SDS011;11046;49.558;8.674;2023-07-24T04:26:30;7.55;;;3.83;;
21769;SDS011;11046;49.558;8.674;2023-07-24T04:29:31;6.40;;;4.10;;
21769;SDS011;11046;49.558;8.674;2023-07-24T04:32:32;8.63;;;4.28;;
21769;SDS011;11046;49.558;8.674;2023-07-24T04:35:32;10.57;;;4.03;;
21769;SDS011;11046;49.558;8.674;2023-07-24T04:38:33;7.13;;;4.18;;
21769;SDS011;11046;49.558;8.674;2023-07-24T04:41:34;8.25;;;4.32;;
21769;SDS011;11046;49.558;8.674;2023-07-24T04:44:34;7.93;;;4.28;;
21769;SDS011;11046;49.558;8.674;2023-07-24T04:47:35;7.65;;;4.22;;
21769;SDS011;11046;49.558;8.674;2023-07-24T04:50:37;6.72;;;4.10;;
21769;SDS011;11046;49.558;8.674;2023-07-24T04:53:37;10.13;;;5.43;;
21769;SDS011;11046;49.558;8.674;2023-07-24T04:56:38;7.88;;;4.22;;
21769;SDS011;11046;49.558;8.674;2023-07-24T04:59:38;6.90;;;4.60;;
21769;SDS011;11046;49.558;8.674;2023-07-24T05:02:39;8.20;;;4.78;;
21769;SDS011;11046;49.558;8.674;2023-07-24T05:05:39;21.33;;;10.30;;
21769;SDS011;11046;49.558;8.674;2023-07-24T05:08:43;11.85;;;7.10;;
21769;SDS011;11046;49.558;8.674;2023-07-24T05:12:04;11.35;;;4.93;;
21769;SDS011;11046;49.558;8.674;2023-07-24T05:15:08;6.85;;;4.43;;
21769;SDS011;11046;49.558;8.674;2023-07-24T05:18:25;6.85;;;4.30;;
21769;SDS011;11046;49.558;8.674;2023-07-24T05:21:54;8.95;;;5.00;;
21769;SDS011;11046;49.558;8.674;2023-07-24T05:25:06;10.30;;;4.00;;
21769;SDS011;11046;49.558;8.674;2023-07-24T05:28:07;7.93;;;4.38;;
21769;SDS011;11046;49.558;8.674;2023-07-24T05:31:07;6.40;;;3.92;;
21769;SDS011;11046;49.558;8.674;2023-07-24T05:34:08;9.95;;;4.65;;
21769;SDS011;11046;49.558;8.674;2023-07-24T05:37:10;8.32;;;5.15;;
21769;SDS011;11046;49.558;8.674;2023-07-24T05:40:15;9.85;;;5.18;;
21769;SDS011;11046;49.558;8.674;2023-07-24T05:44:12;8.43;;;5.20;;
21769;SDS011;11046;49.558;8.674;2023-07-24T05:47:16;6.63;;;4.30;;
21769;SDS011;11046;49.558;8.674;2023-07-24T05:50:29;10.70;;;4.38;;
21769;SDS011;11046;49.558;8.674;2023-07-24T05:54:06;7.03;;;4.38;;
21769;SDS011;11046;49.558;8.674;2023-07-24T05:57:23;7.88;;;4.57;;
21769;SDS011;11046;49.558;8.674;2023-07-24T06:01:04;8.52;;;4.50;;
21769;SDS011;11046;49.558;8.674;2023-07-24T06:04:22;8.18;;;4.60;;
21769;SDS011;11046;49.558;8.674;2023-07-24T06:07:48;10.10;;;4.22;;
21769;SDS011;11046;49.558;8.674;2023-07-24T06:11:21;8.73;;;4.80;;
21769;SDS011;11046;49.558;8.674;2023-07-24T06:14:29;13.68;;;4.15;;
21769;SDS011;11046;49.558;8.674;2023-07-24T06:18:00;12.65;;;4.30;;
21769;SDS011;11046;49.558;8.674;2023-07-24T06:21:15;11.20;;;4.55;;
21769;SDS011;11046;49.558;8.674;2023-07-24T06:24:22;17.08;;;4.43;;
21769;SDS011;11046;49.558;8.674;2023-07-24T06:27:32;8.30;;;4.70;;
21769;SDS011;11046;49.558;8.674;2023-07-24T06:30:57;12.18;;;5.28;;
21769;SDS011;11046;49.558;8.674;2023-07-24T06:34:26;11.48;;;5.45;;
21769;SDS011;11046;49.558;8.674;2023-07-24T06:37:43;9.25;;;5.20;;
21769;SDS011;11046;49.558;8.674;2023-07-24T06:41:30;10.57;;;5.20;;
21769;SDS011;11046;49.558;8.674;2023-07-24T06:44:48;11.35;;;5.30;;
21769;SDS011;11046;49.558;8.674;2023-07-24T06:47:55;10.88;;;5.28;;
21769;SDS011;11046;49.558;8.674;2023-07-24T06:51:09;9.30;;;5.43;;
21769;SDS011;11046;49.558;8.674;2023-07-24T06:54:55;9.48;;;5.60;;
21769;SDS011;11046;49.558;8.674;2023-07-24T06:58:11;9.13;;;5.60;;
21769;SDS011;11046;49.558;8.674;2023-07-24T07:01:14;9.02;;;5.65;;
21769;SDS011;11046;49.558;8.674;2023-07-24T07:04:21;9.88;;;5.78;;
21769;SDS011;11046;49.558;8.674;2023-07-24T07:07:48;11.00;;;5.75;;
21769;SDS011;11046;49.558;8.674;2023-07-24T07:11:12;11.27;;;5.88;;
21769;SDS011;11046;49.558;8.674;2023-07-24T07:14:13;15.68;;;6.80;;
21769;SDS011;11046;49.558;8.674;2023-07-24T07:17:13;15.38;;;6.18;;
21769;SDS011;11046;49.558;8.674;2023-07-24T07:20:14;11.38;;;6.25;;
21769;SDS011;11046;49.558;8.674;2023-07-24T07:23:15;9.40;;;5.93;;
21769;SDS011;11046;49.558;8.674;2023-07-24T07:26:15;13.00;;;6.57;;
21769;SDS011;11046;49.558;8.674;2023-07-24T07:29:16;10.13;;;5.97;;
21769;SDS011;11046;49.558;8.674;2023-07-24T07:32:17;11.00;;;6.55;;
21769;SDS011;11046;49.558;8.674;2023-07-24T07:35:17;10.32;;;6.28;;
21769;SDS011;11046;49.558;8.674;2023-07-24T07:38:18;12.15;;;6.32;;
21769;SDS011;11046;49.558;8.674;2023-07-24T07:41:18;11.60;;;6.15;;
21769;SDS011;11046;49.558;8.674;2023-07-24T07:44:19;9.85;;;6.00;;
21769;SDS011;11046;49.558;8.674;2023-07-24T07:47:20;10.52;;;6.55;;
21769;SDS011;11046;49.558;8.674;2023-07-24T07:50:20;11.73;;;6.03;;
21769;SDS011;11046;49.558;8.674;2023-07-24T07:53:22;9.98;;;5.82;;
21769;SDS011;11046;49.558;8.674;2023-07-24T07:56:22;11.60;;;5.90;;
21769;SDS011;11046;49.558;8.674;2023-07-24T07:59:23;11.25;;;6.25;;
21769;SDS011;11046;49.558;8.674;2023-07-24T08:02:23;9.27;;;5.82;;
21769;SDS011;11046;49.558;8.674;2023-07-24T08:05:24;10.23;;;6.38;;
21769;SDS011;11046;49.558;8.674;2023-07-24T08:12:00;11.52;;;6.45;;
21769;SDS011;11046;49.558;8.674;2023-07-24T08:15:00;10.73;;;6.05;;
21769;SDS011;11046;49.558;8.674;2023-07-24T08:18:01;12.25;;;6.45;;
21769;SDS011;11046;49.558;8.674;2023-07-24T08:21:04;11.13;;;6.45;;
21769;SDS011;11046;49.558;8.674;2023-07-24T08:24:12;11.32;;;6.18;;
21769;SDS011;11046;49.558;8.674;2023-07-24T08:27:13;11.57;;;5.53;;
21769;SDS011;11046;49.558;8.674;2023-07-24T08:30:36;10.38;;;6.05;;
21769;SDS011;11046;49.558;8.674;2023-07-24T08:33:36;10.20;;;6.80;;
21769;SDS011;11046;49.558;8.674;2023-07-24T08:36:43;11.45;;;6.38;;
21769;SDS011;11046;49.558;8.674;2023-07-24T08:40:19;15.35;;;6.85;;
21769;SDS011;11046;49.558;8.674;2023-07-24T08:43:20;10.07;;;6.13;;
21769;SDS011;11046;49.558;8.674;2023-07-24T08:46:24;8.57;;;5.68;;
21769;SDS011;11046;49.558;8.674;2023-07-24T08:49:33;9.68;;;5.80;;
21769;SDS011;11046;49.558;8.674;2023-07-24T08:52:41;9.65;;;5.60;;
21769;SDS011;11046;49.558;8.674;2023-07-24T08:56:21;10.40;;;5.45;;
21769;SDS011;11046;49.558;8.674;2023-07-24T08:59:43;10.27;;;5.38;;
21769;SDS011;11046;49.558;8.674;2023-07-24T09:02:44;10.40;;;5.60;;
21769;SDS011;11046;49.558;8.674;2023-07-24T09:05:44;16.08;;;6.10;;
21769;SDS011;11046;49.558;8.674;2023-07-24T09:08:46;12.55;;;6.38;;
21769;SDS011;11046;49.558;8.674;2023-07-24T09:11:50;13.48;;;6.00;;
21769;SDS011;11046;49.558;8.674;2023-07-24T09:15:02;8.90;;;6.13;;
21769;SDS011;11046;49.558;8.674;2023-07-24T09:18:04;9.27;;;6.32;;
21769;SDS011;11046;49.558;8.674;2023-07-24T09:24:49;10.73;;;5.72;;
21769;SDS011;11046;49.558;8.674;2023-07-24T09:27:52;11.68;;;5.97;;
21769;SDS011;11046;49.558;8.674;2023-07-24T09:31:34;9.77;;;6.13;;
21769;SDS011;11046;49.558;8.674;2023-07-24T09:34:41;9.52;;;5.78;;
21769;SDS011;11046;49.558;8.674;2023-07-24T09:37:42;11.77;;;6.00;;
21769;SDS011;11046;49.558;8.674;2023-07-24T09:40:43;10.18;;;6.78;;
21769;SDS011;11046;49.558;8.674;2023-07-24T09:43:47;8.80;;;6.15;;
21769;SDS011;11046;49.558;8.674;2023-07-24T09:55:02;9.93;;;6.10;;
21769;SDS011;11046;49.558;8.674;2023-07-24T09:58:37;10.00;;;6.30;;
21769;SDS011;11046;49.558;8.674;2023-07-24T10:01:39;12.00;;;5.75;;
21769;SDS011;11046;49.558;8.674;2023-07-24T10:04:40;11.70;;;6.20;;
21769;SDS011;11046;49.558;8.674;2023-07-24T10:07:41;12.35;;;6.78;;
21769;SDS011;11046;49.558;8.674;2023-07-24T10:10:42;11.38;;;6.38;;
21769;SDS011;11046;49.558;8.674;2023-07-24T10:13:43;12.82;;;6.45;;
21769;SDS011;11046;49.558;8.674;2023-07-24T10:16:45;10.10;;;6.03;;
21769;SDS011;11046;49.558;8.674;2023-07-24T10:19:45;13.23;;;6.00;;
21769;SDS011;11046;49.558;8.674;2023-07-24T10:22:46;12.45;;;6.85;;
21769;SDS011;11046;49.558;8.674;2023-07-24T10:25:49;10.05;;;5.70;;
21769;SDS011;11046;49.558;8.674;2023-07-24T10:28:52;14.95;;;6.00;;
21769;SDS011;11046;49.558;8.674;2023-07-24T10:38:39;10.82;;;5.95;;
21769;SDS011;11046;49.558;8.674;2023-07-24T10:41:41;9.57;;;6.00;;
21769;SDS011;11046;49.558;8.674;2023-07-24T10:44:44;12.05;;;6.10;;
21769;SDS011;11046;49.558;8.674;2023-07-24T10:47:44;9.27;;;5.22;;
21769;SDS011;11046;49.558;8.674;2023-07-24T10:50:46;11.98;;;6.03;;
21769;SDS011;11046;49.558;8.674;2023-07-24T10:53:48;9.30;;;6.15;;
21769;SDS011;11046;49.558;8.674;2023-07-24T10:56:49;8.73;;;5.15;;
21769;SDS011;11046;49.558;8.674;2023-07-24T11:00:08;9.65;;;5.68;;
21769;SDS011;11046;49.558;8.674;2023-07-24T11:03:09;8.98;;;5.55;;
21769;SDS011;11046;49.558;8.674;2023-07-24T11:06:12;9.15;;;5.38;;
21769;SDS011;11046;49.558;8.674;2023-07-24T11:09:16;8.13;;;5.20;;
21769;SDS011;11046;49.558;8.674;2023-07-24T11:12:17;7.57;;;5.32;;
21769;SDS011;11046;49.558;8.674;2023-07-24T11:15:23;10.10;;;5.82;;
21769;SDS011;11046;49.558;8.674;2023-07-24T11:18:28;8.77;;;5.30;;
21769;SDS011;11046;49.558;8.674;2023-07-24T11:22:21;10.05;;;4.93;;
21769;SDS011;11046;49.558;8.674;2023-07-24T11:25:22;12.55;;;5.43;;
21769;SDS011;11046;49.558;8.674;2023-07-24T11:28:22;9.35;;;4.95;;
21769;SDS011;11046;49.558;8.674;2023-07-24T11:31:23;12.65;;;5.57;;
21769;SDS011;11046;49.558;8.674;2023-07-24T11:34:23;8.45;;;5.13;;
21769;SDS011;11046;49.558;8.674;2023-07-24T11:37:26;12.82;;;5.30;;
21769;SDS011;11046;49.558;8.674;2023-07-24T11:40:35;8.43;;;5.65;;
21769;SDS011;11046;49.558;8.674;2023-07-24T11:43:44;8.73;;;5.28;;
21769;SDS011;11046;49.558;8.674;2023-07-24T11:46:48;9.40;;;5.15;;
21769;SDS011;11046;49.558;8.674;2023-07-24T11:49:56;9.40;;;5.60;;
21769;SDS011;11046;49.558;8.674;2023-07-24T11:53:00;7.88;;;5.25;;
21769;SDS011;11046;49.558;8.674;2023-07-24T11:56:00;8.80;;;5.95;;
21769;SDS011;11046;49.558;8.674;2023-07-24T11:59:08;8.43;;;5.35;;
21769;SDS011;11046;49.558;8.674;2023-07-24T12:02:48;7.72;;;5.30;;
21769;SDS011;11046;49.558;8.674;2023-07-24T12:06:58;10.32;;;6.32;;
21769;SDS011;11046;49.558;8.674;2023-07-24T12:09:59;8.70;;;5.82;;
21769;SDS011;11046;49.558;8.674;2023-07-24T12:13:04;8.98;;;5.47;;
21769;SDS011;11046;49.558;8.674;2023-07-24T12:16:07;8.02;;;5.38;;
21769;SDS011;11046;49.558;8.674;2023-07-24T12:19:07;10.40;;;4.95;;
21769;SDS011;11046;49.558;8.674;2023-07-24T12:22:09;8.75;;;5.20;;
21769;SDS011;11046;49.558;8.674;2023-07-24T12:25:10;9.00;;;6.15;;
21769;SDS011;11046;49.558;8.674;2023-07-24T12:28:10;13.27;;;6.00;;
21769;SDS011;11046;49.558;8.674;2023-07-24T12:31:11;9.27;;;5.80;;
21769;SDS011;11046;49.558;8.674;2023-07-24T12:34:11;7.28;;;5.05;;
21769;SDS011;11046;49.558;8.674;2023-07-24T12:37:12;7.38;;;5.00;;
21769;SDS011;11046;49.558;8.674;2023-07-24T12:40:13;10.15;;;5.35;;
21769;SDS011;11046;49.558;8.674;2023-07-24T12:43:14;10.60;;;5.30;;
21769;SDS011;11046;49.558;8.674;2023-07-24T12:46:15;9.93;;;5.25;;
21769;SDS011;11046;49.558;8.674;2023-07-24T12:49:17;8.75;;;5.90;;
21769;SDS011;11046;49.558;8.674;2023-07-24T12:52:25;12.20;;;5.90;;
21769;SDS011;11046;49.558;8.674;2023-07-24T12:55:26;10.20;;;5.82;;
21769;SDS011;11046;49.558;8.674;2023-07-24T12:58:27;7.53;;;5.25;;
21769;SDS011;11046;49.558;8.674;2023-07-24T13:04:53;13.30;;;5.90;;
21769;SDS011;11046;49.558;8.674;2023-07-24T13:07:54;10.52;;;5.80;;
21769;SDS011;11046;49.558;8.674;2023-07-24T13:10:54;11.18;;;5.82;;
21769;SDS011;11046;49.558;8.674;2023-07-24T13:13:55;8.75;;;5.97;;
21769;SDS011;11046;49.558;8.674;2023-07-24T13:16:55;8.23;;;5.53;;
21769;SDS011;11046;49.558;8.674;2023-07-24T13:19:56;8.85;;;5.72;;
21769;SDS011;11046;49.558;8.674;2023-07-24T13:22:57;7.32;;;5.00;;
21769;SDS011;11046;49.558;8.674;2023-07-24T13:25:57;7.70;;;5.30;;
21769;SDS011;11046;49.558;8.674;2023-07-24T13:32:44;7.63;;;5.28;;
21769;SDS011;11046;49.558;8.674;2023-07-24T13:35:45;8.20;;;5.53;;
21769;SDS011;11046;49.558;8.674;2023-07-24T13:38:45;8.43;;;5.32;;
21769;SDS011;11046;49.558;8.674;2023-07-24T13:41:46;8.70;;;5.43;;
21769;SDS011;11046;49.558;8.674;2023-07-24T13:44:59;9.40;;;5.72;;
21769;SDS011;11046;49.558;8.674;2023-07-24T13:51:39;8.35;;;4.68;;
21769;SDS011;11046;49.558;8.674;2023-07-24T13:54:39;9.38;;;5.32;;
21769;SDS011;11046;49.558;8.674;2023-07-24T13:57:40;8.93;;;5.13;;
21769;SDS011;11046;49.558;8.674;2023-07-24T14:00:41;7.75;;;5.30;;
21769;SDS011;11046;49.558;8.674;2023-07-24T14:03:42;7.53;;;5.13;;
21769;SDS011;11046;49.558;8.674;2023-07-24T14:06:42;8.13;;;5.00;;
21769;SDS011;11046;49.558;8.674;2023-07-24T14:09:43;8.35;;;5.20;;
21769;SDS011;11046;49.558;8.674;2023-07-24T14:12:43;7.93;;;5.35;;
21769;SDS011;11046;49.558;8.674;2023-07-24T14:15:44;9.25;;;5.45;;
21769;SDS011;11046;49.558;8.674;2023-07-24T14:18:44;12.60;;;6.10;;
21769;SDS011;11046;49.558;8.674;2023-07-24T14:21:45;16.45;;;6.43;;
21769;SDS011;11046;49.558;8.674;2023-07-24T14:24:46;12.48;;;6.53;;
21769;SDS011;11046;49.558;8.674;2023-07-24T14:27:46;14.15;;;6.53;;
21769;SDS011;11046;49.558;8.674;2023-07-24T14:30:47;15.32;;;6.75;;
21769;SDS011;11046;49.558;8.674;2023-07-24T14:33:48;14.88;;;6.82;;
21769;SDS011;11046;49.558;8.674;2023-07-24T14:36:48;17.20;;;7.50;;
21769;SDS011;11046;49.558;8.674;2023-07-24T14:39:49;17.75;;;6.88;;
21769;SDS011;11046;49.558;8.674;2023-07-24T14:42:50;13.93;;;7.00;;
21769;SDS011;11046;49.558;8.674;2023-07-24T14:45:50;14.73;;;7.13;;
21769;SDS011;11046;49.558;8.674;2023-07-24T14:48:51;16.40;;;6.88;;
21769;SDS011;11046;49.558;8.674;2023-07-24T14:51:51;12.25;;;7.35;;
21769;SDS011;11046;49.558;8.674;2023-07-24T14:54:52;14.45;;;7.25;;
21769;SDS011;11046;49.558;8.674;2023-07-24T14:57:52;11.32;;;6.57;;
21769;SDS011;11046;49.558;8.674;2023-07-24T15:00:53;13.95;;;7.15;;
21769;SDS011;11046;49.558;8.674;2023-07-24T15:03:54;15.75;;;7.38;;
21769;SDS011;11046;49.558;8.674;2023-07-24T15:06:56;13.77;;;6.72;;
21769;SDS011;11046;49.558;8.674;2023-07-24T15:09:57;11.65;;;7.30;;
21769;SDS011;11046;49.558;8.674;2023-07-24T15:12:57;12.73;;;6.47;;
21769;SDS011;11046;49.558;8.674;2023-07-24T15:15:58;12.27;;;7.05;;
21769;SDS011;11046;49.558;8.674;2023-07-24T15:18:59;11.50;;;6.55;;
21769;SDS011;11046;49.558;8.674;2023-07-24T15:21:59;11.55;;;6.70;;
21769;SDS011;11046;49.558;8.674;2023-07-24T15:25:00;12.88;;;6.80;;
21769;SDS011;11046;49.558;8.674;2023-07-24T15:28:01;11.93;;;6.05;;
21769;SDS011;11046;49.558;8.674;2023-07-24T15:31:01;8.75;;;5.57;;
21769;SDS011;11046;49.558;8.674;2023-07-24T15:34:02;9.23;;;5.47;;
21769;SDS011;11046;49.558;8.674;2023-07-24T15:37:05;6.40;;;4.57;;
21769;SDS011;11046;49.558;8.674;2023-07-24T15:40:05;7.10;;;3.80;;
21769;SDS011;11046;49.558;8.674;2023-07-24T15:43:06;6.50;;;3.75;;
21769;SDS011;11046;49.558;8.674;2023-07-24T15:46:07;6.00;;;3.90;;
21769;SDS011;11046;49.558;8.674;2023-07-24T15:49:08;6.55;;;3.85;;
21769;SDS011;11046;49.558;8.674;2023-07-24T15:52:08;6.75;;;3.97;;
21769;SDS011;11046;49.558;8.674;2023-07-24T15:55:09;6.90;;;4.03;;
21769;SDS011;11046;49.558;8.674;2023-07-24T15:58:10;5.38;;;3.97;;
21769;SDS011;11046;49.558;8.674;2023-07-24T16:01:11;6.40;;;3.75;;
21769;SDS011;11046;49.558;8.674;2023-07-24T16:04:12;4.95;;;3.72;;
21769;SDS011;11046;49.558;8.674;2023-07-24T16:07:12;6.85;;;4.38;;
21769;SDS011;11046;49.558;8.674;2023-07-24T16:10:16;5.32;;;3.40;;
21769;SDS011;11046;49.558;8.674;2023-07-24T16:13:17;8.02;;;4.28;;
21769;SDS011;11046;49.558;8.674;2023-07-24T16:16:18;6.82;;;4.50;;
21769;SDS011;11046;49.558;8.674;2023-07-24T16:19:19;8.18;;;4.70;;
21769;SDS011;11046;49.558;8.674;2023-07-24T16:22:21;6.55;;;4.32;;
21769;SDS011;11046;49.558;8.674;2023-07-24T16:25:21;7.25;;;3.40;;
21769;SDS011;11046;49.558;8.674;2023-07-24T16:28:22;6.97;;;3.55;;
21769;SDS011;11046;49.558;8.674;2023-07-24T16:31:23;5.43;;;3.63;;
21769;SDS011;11046;49.558;8.674;2023-07-24T16:34:23;5.20;;;2.92;;
21769;SDS011;11046;49.558;8.674;2023-07-24T16:37:24;4.68;;;2.63;;
21769;SDS011;11046;49.558;8.674;2023-07-24T16:40:28;2.90;;;2.30;;
21769;SDS011;11046;49.558;8.674;2023-07-24T16:43:29;2.72;;;1.90;;
21769;SDS011;11046;49.558;8.674;2023-07-24T16:46:30;4.90;;;1.92;;
21769;SDS011;11046;49.558;8.674;2023-07-24T16:49:31;2.47;;;1.90;;
21769;SDS011;11046;49.558;8.674;2023-07-24T16:52:32;3.17;;;2.20;;
21769;SDS011;11046;49.558;8.674;2023-07-24T16:55:33;2.70;;;1.48;;
21769;SDS011;11046;49.558;8.674;2023-07-24T16:58:34;1.70;;;1.40;;
21769;SDS011;11046;49.558;8.674;2023-07-24T17:01:35;1.92;;;1.33;;
21769;SDS011;11046;49.558;8.674;2023-07-24T17:04:35;2.08;;;1.38;;
21769;SDS011;11046;49.558;8.674;2023-07-24T17:07:36;2.50;;;1.48;;
21769;SDS011;11046;49.558;8.674;2023-07-24T17:10:44;2.70;;;1.52;;
21769;SDS011;11046;49.558;8.674;2023-07-24T17:13:46;3.72;;;1.40;;
21769;SDS011;11046;49.558;8.674;2023-07-24T17:16:47;2.15;;;1.40;;
21769;SDS011;11046;49.558;8.674;2023-07-24T17:19:47;2.72;;;1.35;;
21769;SDS011;11046;49.558;8.674;2023-07-24T17:22:48;2.17;;;1.50;;
21769;SDS011;11046;49.558;8.674;2023-07-24T17:25:49;2.88;;;1.60;;
21769;SDS011;11046;49.558;8.674;2023-07-24T17:28:49;2.45;;;1.40;;
21769;SDS011;11046;49.558;8.674;2023-07-24T17:31:50;1.80;;;1.40;;
21769;SDS011;11046;49.558;8.674;2023-07-24T17:34:51;3.35;;;1.70;;
21769;SDS011;11046;49.558;8.674;2023-07-24T17:37:51;3.35;;;1.80;;
21769;SDS011;11046;49.558;8.674;2023-07-24T17:40:52;1.80;;;1.50;;
21769;SDS011;11046;49.558;8.674;2023-07-24T17:43:53;2.17;;;1.70;;
21769;SDS011;11046;49.558;8.674;2023-07-24T17:46:54;3.30;;;1.50;;
21769;SDS011;11046;49.558;8.674;2023-07-24T17:49:54;2.63;;;1.60;;
21769;SDS011;11046;49.558;8.674;2023-07-24T17:52:55;2.85;;;1.95;;
21769;SDS011;11046;49.558;8.674;2023-07-24T17:55:56;3.42;;;1.55;;
21769;SDS011;11046;49.558;8.674;2023-07-24T17:58:57;2.55;;;1.73;;
21769;SDS011;11046;49.558;8.674;2023-07-24T18:01:57;2.55;;;1.73;;
21769;SDS011;11046;49.558;8.674;2023-07-24T18:04:58;3.10;;;1.77;;
21769;SDS011;11046;49.558;8.674;2023-07-24T18:07:59;2.40;;;1.67;;
21769;SDS011;11046;49.558;8.674;2023-07-24T18:10:59;2.88;;;1.90;;
21769;SDS011;11046;49.558;8.674;2023-07-24T18:14:00;6.50;;;2.80;;
21769;SDS011;11046;49.558;8.674;2023-07-24T18:17:00;2.55;;;1.88;;
21769;SDS011;11046;49.558;8.674;2023-07-24T18:20:01;1.77;;;1.60;;
21769;SDS011;11046;49.558;8.674;2023-07-24T18:23:02;3.75;;;1.63;;
21769;SDS011;11046;49.558;8.674;2023-07-24T18:26:06;4.03;;;1.67;;
21769;SDS011;11046;49.558;8.674;2023-07-24T18:29:06;2.33;;;1.83;;
21769;SDS011;11046;49.558;8.674;2023-07-24T18:32:07;4.47;;;2.00;;
21769;SDS011;11046;49.558;8.674;2023-07-24T18:35:08;5.30;;;1.90;;
21769;SDS011;11046;49.558;8.674;2023-07-24T18:38:09;2.97;;;2.00;;
21769;SDS011;11046;49.558;8.674;2023-07-24T18:41:10;7.22;;;1.70;;
21769;SDS011;11046;49.558;8.674;2023-07-24T18:44:10;1.88;;;1.50;;
21769;SDS011;11046;49.558;8.674;2023-07-24T18:47:11;3.88;;;2.25;;
21769;SDS011;11046;49.558;8.674;2023-07-24T18:50:12;2.90;;;2.15;;
21769;SDS011;11046;49.558;8.674;2023-07-24T18:53:12;4.28;;;1.80;;
21769;SDS011;11046;49.558;8.674;2023-07-24T18:56:13;3.55;;;1.98;;
21769;SDS011;11046;49.558;8.674;2023-07-24T18:59:14;4.85;;;2.30;;
21769;SDS011;11046;49.558;8.674;2023-07-24T19:02:15;3.75;;;2.35;;